Time;durP1;ratioP1;P1;durP2;ratioP2;P2;SDS_P1;SDS_P2;PMS_P1;PMS_P2;Temp;Humidity;BMP_temperature;BMP_pressure;BME280_temperature;BME280_humidity;BME280_pressure;Samples;Min_cycle;Max_cycle;Signal;HPM_P1;HPM_P2
2021/05/20 00:01:22;;;;;;;3.33;0.90;;;16.30;58.20;;;;;;4995742;28;20174;-71
2021/05/20 00:03:48;;;;;;;1.83;0.77;;;16.20;58.10;;;;;;4995942;28;20475;-71
2021/05/20 00:06:14;;;;;;;3.95;1.02;;;16.10;58.10;;;;;;4995703;28;20034;-70
2021/05/20 00:08:39;;;;;;;1.40;0.80;;;16.10;58.20;;;;;;4984324;28;20480;-72
2021/05/20 00:11:05;;;;;;;2.78;0.88;;;16.00;58.20;;;;;;4976371;28;20038;-70
2021/05/20 00:13:30;;;;;;;2.10;1.10;;;16.00;58.10;;;;;;4976143;28;20369;-71
2021/05/20 00:15:56;;;;;;;2.25;0.90;;;16.00;58.30;;;;;;4976091;28;20027;-69
2021/05/20 00:18:22;;;;;;;3.13;0.82;;;16.00;58.30;;;;;;4982069;28;20023;-71
2021/05/20 00:20:48;;;;;;;3.58;0.90;;;16.00;58.40;;;;;;4994935;28;20022;-71
2021/05/20 00:23:14;;;;;;;3.13;0.85;;;15.90;58.30;;;;;;4995003;28;20034;-70
2021/05/20 00:25:39;;;;;;;2.90;1.00;;;15.90;58.40;;;;;;4995406;28;20022;-70
2021/05/20 00:28:05;;;;;;;1.90;0.95;;;15.90;58.90;;;;;;4994944;28;20081;-70
2021/05/20 00:30:31;;;;;;;2.28;0.80;;;15.80;59.20;;;;;;4995168;28;20030;-70
2021/05/20 00:32:56;;;;;;;1.77;0.82;;;15.70;59.20;;;;;;4977627;28;20037;-71
2021/05/20 00:35:23;;;;;;;3.08;0.88;;;15.70;59.50;;;;;;4995221;28;20142;-70
2021/05/20 00:37:49;;;;;;;1.60;0.75;;;15.60;59.50;;;;;;4995251;28;20041;-70
2021/05/20 00:40:15;;;;;;;2.50;1.23;;;15.60;59.90;;;;;;4994548;28;20061;-70
2021/05/20 00:42:44;;;;;;;1.27;0.85;;;15.50;59.90;;;;;;4995256;28;20037;-70
2021/05/20 00:45:11;;;;;;;4.20;1.10;;;15.50;60.20;;;;;;4995272;28;20118;-70
2021/05/20 00:47:36;;;;;;;1.55;0.75;;;15.50;59.90;;;;;;4994997;28;20030;-70
2021/05/20 00:50:08;;;;;;;2.75;0.90;;;15.50;59.90;;;;;;4983336;28;20026;-71
2021/05/20 00:52:35;;;;;;;2.22;0.90;;;15.50;60.00;;;;;;4975852;28;20065;-69
2021/05/20 00:55:03;;;;;;;2.95;0.95;;;15.60;59.70;;;;;;4975485;28;20023;-70
2021/05/20 00:57:29;;;;;;;1.17;0.75;;;15.60;59.90;;;;;;4975356;28;20062;-70
2021/05/20 01:00:01;;;;;;;4.55;0.90;;;15.60;59.90;;;;;;4982964;28;20477;-70
2021/05/20 01:02:27;;;;;;;3.65;0.85;;;15.60;60.00;;;;;;4994678;28;20049;-69
2021/05/20 01:04:53;;;;;;;1.58;0.75;;;15.60;59.60;;;;;;4994815;28;20026;-70
2021/05/20 01:07:18;;;;;;;3.60;0.90;;;15.60;59.90;;;;;;4994628;28;20018;-71
2021/05/20 01:09:44;;;;;;;3.05;0.93;;;15.60;60.10;;;;;;4991134;28;20117;-70
2021/05/20 01:12:11;;;;;;;2.78;0.80;;;15.70;60.00;;;;;;4975349;28;20483;-70
2021/05/20 01:14:42;;;;;;;7.38;0.90;;;15.60;60.30;;;;;;4975058;28;20031;-71
2021/05/20 01:17:07;;;;;;;5.05;1.00;;;15.60;59.90;;;;;;4975073;28;20102;-71
2021/05/20 01:19:42;;;;;;;3.72;0.85;;;15.70;59.90;;;;;;4975027;28;20105;-70
2021/05/20 01:22:08;;;;;;;1.40;0.85;;;15.70;60.10;;;;;;4975079;28;20034;-70
2021/05/20 01:24:35;;;;;;;7.65;1.02;;;15.70;59.90;;;;;;4977195;28;20042;-71
2021/05/20 01:27:05;;;;;;;1.85;0.90;;;15.70;60.30;;;;;;4971728;28;20118;-70
2021/05/20 01:29:31;;;;;;;2.13;1.00;;;15.70;60.00;;;;;;4974821;28;20023;-71
2021/05/20 01:31:58;;;;;;;2.05;0.90;;;15.80;60.00;;;;;;4958825;28;20039;-71
2021/05/20 01:34:24;;;;;;;3.42;1.13;;;15.70;60.20;;;;;;4962883;28;20315;-70
2021/05/20 01:36:49;;;;;;;2.40;0.70;;;15.70;60.10;;;;;;4973304;28;20030;-71
2021/05/20 01:39:15;;;;;;;3.45;0.85;;;15.80;60.30;;;;;;4974657;28;20349;-70
2021/05/20 01:41:41;;;;;;;4.28;0.75;;;15.80;60.00;;;;;;4973196;28;20035;-71
2021/05/20 01:44:07;;;;;;;2.10;1.05;;;15.60;60.00;;;;;;4971964;28;20059;-70
2021/05/20 01:46:32;;;;;;;5.28;1.50;;;15.50;60.30;;;;;;4955285;28;20028;-70
2021/05/20 01:48:58;;;;;;;2.33;0.80;;;15.60;60.30;;;;;;4955393;28;20370;-70
2021/05/20 01:51:24;;;;;;;1.42;0.80;;;15.70;60.40;;;;;;4955222;28;20030;-70
2021/05/20 01:53:53;;;;;;;6.18;0.93;;;15.80;60.20;;;;;;4969511;28;20105;-71
2021/05/20 01:56:20;;;;;;;4.20;0.80;;;15.70;60.20;;;;;;4957090;28;20043;-71
2021/05/20 01:58:47;;;;;;;2.35;0.82;;;15.50;60.40;;;;;;4954972;28;20050;-70
2021/05/20 02:01:14;;;;;;;1.90;0.88;;;15.50;60.20;;;;;;4954985;28;20032;-71
2021/05/20 02:03:40;;;;;;;2.15;0.90;;;15.50;60.40;;;;;;4954983;28;20035;-70
2021/05/20 02:06:06;;;;;;;3.72;0.90;;;15.40;60.40;;;;;;4967549;28;20110;-70
2021/05/20 02:08:35;;;;;;;3.88;0.77;;;15.30;60.40;;;;;;4974238;28;20424;-70
2021/05/20 02:11:02;;;;;;;3.03;1.00;;;15.10;60.70;;;;;;4974079;28;20480;-70
2021/05/20 02:13:27;;;;;;;2.92;0.95;;;15.10;61.00;;;;;;4974031;28;20015;-70
2021/05/20 02:15:53;;;;;;;2.20;0.80;;;15.10;60.90;;;;;;4965355;28;20038;-70
2021/05/20 02:18:19;;;;;;;3.75;1.20;;;15.10;61.20;;;;;;4954814;28;20051;-70
2021/05/20 02:20:45;;;;;;;3.75;1.30;;;15.20;61.20;;;;;;4954519;28;20121;-70
2021/05/20 02:23:12;;;;;;;4.70;1.20;;;15.20;61.00;;;;;;4954665;28;20063;-70
2021/05/20 02:25:38;;;;;;;4.05;1.10;;;15.20;61.10;;;;;;4955545;28;20033;-70
2021/05/20 02:28:04;;;;;;;1.67;1.00;;;15.20;61.00;;;;;;4973178;28;20042;-70
2021/05/20 02:30:31;;;;;;;2.53;1.00;;;15.30;60.90;;;;;;4993249;28;20473;-72
2021/05/20 02:32:57;;;;;;;2.10;1.00;;;15.30;60.90;;;;;;4993178;28;20033;-74
2021/05/20 02:35:23;;;;;;;1.75;1.00;;;15.20;60.70;;;;;;4993357;28;20046;-75
2021/05/20 02:37:51;;;;;;;1.60;0.90;;;15.20;61.10;;;;;;4992959;28;20022;-74
2021/05/20 02:40:18;;;;;;;2.10;0.73;;;15.10;61.00;;;;;;4992432;28;20098;-74
2021/05/20 02:42:44;;;;;;;2.28;0.80;;;15.10;61.20;;;;;;4993174;28;20034;-73
2021/05/20 02:45:19;;;;;;;4.93;1.10;;;15.00;61.20;;;;;;4991964;28;20413;-74
2021/05/20 02:47:49;;;;;;;1.67;0.90;;;15.00;61.20;;;;;;4975355;28;20022;-73
2021/05/20 02:50:16;;;;;;;1.45;0.82;;;14.90;61.20;;;;;;4958941;28;20026;-71
2021/05/20 02:52:45;;;;;;;6.07;1.33;;;14.80;61.40;;;;;;4973635;28;20027;-70
2021/05/20 02:55:16;;;;;;;5.80;1.40;;;14.80;61.70;;;;;;4988617;28;20034;-71
2021/05/20 02:57:44;;;;;;;2.97;1.27;;;14.70;61.60;;;;;;4992793;28;20035;-70
2021/05/20 03:00:11;;;;;;;3.50;1.20;;;14.70;62.10;;;;;;4979510;28;20022;-70
2021/05/20 03:02:37;;;;;;;2.60;1.08;;;14.60;62.20;;;;;;4973166;28;20042;-71
2021/05/20 03:05:05;;;;;;;3.05;1.23;;;14.70;62.20;;;;;;4973643;28;20093;-70
2021/05/20 03:07:32;;;;;;;4.75;1.75;;;14.70;62.00;;;;;;4973355;28;20075;-71
2021/05/20 03:09:57;;;;;;;5.05;1.17;;;14.70;62.20;;;;;;4981640;28;20026;-71
2021/05/20 03:12:23;;;;;;;3.08;0.93;;;14.80;62.40;;;;;;4992749;28;20030;-70
2021/05/20 03:14:49;;;;;;;2.92;1.20;;;14.80;62.30;;;;;;4992554;28;20035;-71
2021/05/20 03:17:15;;;;;;;2.00;1.10;;;15.00;62.00;;;;;;4992294;28;20049;-70
2021/05/20 03:19:40;;;;;;;7.13;1.30;;;15.10;61.60;;;;;;4988629;28;20476;-71
2021/05/20 03:22:07;;;;;;;2.95;1.10;;;15.10;61.10;;;;;;4973198;28;20122;-71
2021/05/20 03:24:34;;;;;;;3.53;0.82;;;15.10;61.10;;;;;;4973257;28;20032;-70
2021/05/20 03:27:00;;;;;;;4.13;1.05;;;15.00;61.20;;;;;;4973087;28;20170;-71
2021/05/20 03:29:26;;;;;;;2.35;1.30;;;15.00;61.20;;;;;;4973126;28;20019;-71
2021/05/20 03:31:52;;;;;;;2.80;1.10;;;15.00;61.10;;;;;;4991667;28;20041;-71
2021/05/20 03:34:18;;;;;;;6.88;1.20;;;15.00;61.10;;;;;;4992687;28;20018;-71
2021/05/20 03:36:43;;;;;;;2.55;1.13;;;15.00;60.80;;;;;;4992509;28;20356;-70
2021/05/20 03:39:09;;;;;;;4.53;1.00;;;15.00;61.10;;;;;;4992603;28;20131;-70
2021/05/20 03:41:35;;;;;;;3.15;1.00;;;15.00;61.00;;;;;;4991368;28;20062;-70
2021/05/20 03:44:00;;;;;;;2.83;1.10;;;15.00;61.00;;;;;;4974977;28;20034;-69
2021/05/20 03:46:26;;;;;;;4.50;1.13;;;15.00;60.90;;;;;;4992140;28;20027;-69
2021/05/20 03:48:52;;;;;;;2.70;1.13;;;14.90;60.90;;;;;;4977078;28;20031;-70
2021/05/20 03:51:17;;;;;;;13.52;1.42;;;14.70;60.80;;;;;;4981413;28;20117;-71
2021/05/20 03:53:43;;;;;;;4.15;1.40;;;14.70;61.10;;;;;;4992378;28;20057;-70
2021/05/20 03:56:09;;;;;;;1.83;1.00;;;14.70;61.20;;;;;;4993512;28;20106;-70
2021/05/20 03:58:34;;;;;;;3.25;1.45;;;14.80;61.50;;;;;;4996129;28;20110;-71
2021/05/20 04:01:00;;;;;;;2.83;1.15;;;14.80;61.20;;;;;;4992268;28;20039;-71
2021/05/20 04:03:27;;;;;;;5.47;1.30;;;14.90;61.30;;;;;;4976578;28;20034;-72
2021/05/20 04:05:57;;;;;;;5.75;1.38;;;15.00;61.20;;;;;;4976316;28;20031;-70
2021/05/20 04:08:23;;;;;;;4.20;1.20;;;15.00;61.10;;;;;;4976262;28;20098;-71
2021/05/20 04:10:50;;;;;;;4.28;1.30;;;15.00;61.20;;;;;;4976354;28;20027;-69
2021/05/20 04:13:33;;;;;;;8.00;1.10;;;15.10;60.90;;;;;;4995150;28;20023;-70
2021/05/20 04:15:59;;;;;;;3.90;1.27;;;15.20;60.80;;;;;;4985634;28;20039;-72
2021/05/20 04:18:25;;;;;;;3.03;0.98;;;15.20;60.40;;;;;;4976201;28;20105;-71
2021/05/20 04:20:51;;;;;;;5.75;1.23;;;15.20;60.10;;;;;;4976102;28;20059;-70
2021/05/20 04:23:17;;;;;;;4.05;1.00;;;15.30;60.50;;;;;;4991927;28;20103;-70
2021/05/20 04:25:43;;;;;;;5.88;1.20;;;15.30;60.10;;;;;;4995250;28;20034;-70
2021/05/20 04:28:10;;;;;;;3.67;1.30;;;15.30;59.90;;;;;;4994999;28;20076;-70
2021/05/20 04:30:36;;;;;;;5.85;1.35;;;15.30;60.00;;;;;;4995099;28;20022;-70
2021/05/20 04:33:04;;;;;;;2.60;1.20;;;15.20;59.90;;;;;;4983593;28;20042;-71
2021/05/20 04:35:31;;;;;;;9.80;1.90;;;15.10;60.20;;;;;;4975472;28;20023;-70
2021/05/20 04:37:56;;;;;;;2.85;1.10;;;15.00;60.30;;;;;;4975780;28;20428;-70
2021/05/20 04:40:22;;;;;;;4.57;1.13;;;15.00;60.50;;;;;;4975331;28;20065;-71
2021/05/20 04:42:48;;;;;;;5.65;1.30;;;15.00;60.60;;;;;;4981892;28;20042;-71
2021/05/20 04:45:14;;;;;;;4.90;1.30;;;14.90;60.30;;;;;;4994754;28;20073;-72
2021/05/20 04:47:40;;;;;;;3.10;1.30;;;15.00;60.70;;;;;;4994849;28;20022;-71
2021/05/20 04:50:06;;;;;;;8.32;1.60;;;15.00;60.60;;;;;;4995071;28;20356;-71
2021/05/20 04:52:32;;;;;;;5.65;1.35;;;15.00;60.50;;;;;;4975510;28;20029;-71
2021/05/20 04:54:57;;;;;;;5.05;1.13;;;15.10;60.60;;;;;;4975508;28;20360;-70
2021/05/20 04:57:23;;;;;;;3.78;1.40;;;15.30;60.60;;;;;;4975355;28;20038;-71
2021/05/20 04:59:49;;;;;;;3.15;1.20;;;15.30;59.80;;;;;;4975438;28;20102;-70
2021/05/20 05:02:14;;;;;;;7.72;1.30;;;15.40;59.70;;;;;;4975146;28;20039;-69
2021/05/20 05:04:40;;;;;;;5.03;1.73;;;15.50;59.70;;;;;;4991027;28;20026;-70
2021/05/20 05:07:06;;;;;;;3.58;1.30;;;15.60;59.50;;;;;;4994070;28;20027;-70
2021/05/20 05:09:32;;;;;;;5.50;1.70;;;15.60;59.10;;;;;;4994327;28;20472;-72
2021/05/20 05:11:57;;;;;;;5.13;1.35;;;15.50;59.20;;;;;;4976518;28;20035;-70
2021/05/20 05:14:23;;;;;;;4.97;1.80;;;15.50;59.10;;;;;;4985592;28;20030;-71
2021/05/20 05:16:49;;;;;;;5.72;1.65;;;15.70;59.00;;;;;;4994513;28;20019;-71
2021/05/20 05:19:14;;;;;;;5.97;1.30;;;15.80;58.70;;;;;;4994359;28;20023;-70
2021/05/20 05:21:40;;;;;;;6.13;1.42;;;15.90;58.40;;;;;;4993990;28;20085;-72
2021/05/20 05:24:06;;;;;;;4.43;1.30;;;16.10;58.00;;;;;;4987776;28;20118;-71
2021/05/20 05:26:32;;;;;;;3.45;1.30;;;16.20;57.80;;;;;;4974587;28;20474;-69
2021/05/20 05:28:58;;;;;;;2.42;1.20;;;16.40;57.50;;;;;;4974542;28;20086;-70
2021/05/20 05:31:25;;;;;;;5.88;1.50;;;16.50;57.00;;;;;;4974545;28;20031;-70
2021/05/20 05:33:52;;;;;;;4.43;1.30;;;16.60;56.70;;;;;;4986900;28;20491;-74
2021/05/20 05:36:18;;;;;;;4.55;1.13;;;16.80;56.60;;;;;;4974290;28;20098;-71
2021/05/20 05:38:44;;;;;;;4.70;1.15;;;16.90;56.40;;;;;;4974506;28;20050;-73
2021/05/20 05:41:10;;;;;;;8.63;1.15;;;17.10;56.70;;;;;;4974138;28;20030;-75
2021/05/20 05:43:36;;;;;;;3.92;1.30;;;17.20;56.20;;;;;;4974558;28;20062;-75
2021/05/20 05:46:01;;;;;;;3.75;1.13;;;17.40;55.70;;;;;;4989950;28;20073;-73
2021/05/20 05:48:27;;;;;;;5.53;1.50;;;17.60;55.70;;;;;;4993395;28;20046;-73
2021/05/20 05:50:56;;;;;;;5.35;1.48;;;17.60;54.80;;;;;;4993804;28;20068;-76
2021/05/20 05:53:21;;;;;;;6.45;1.67;;;17.80;55.00;;;;;;4975922;28;20096;-72
2021/05/20 05:55:47;;;;;;;7.75;1.42;;;17.90;54.10;;;;;;4981769;28;21815;-72
2021/05/20 05:58:13;;;;;;;10.52;1.77;;;18.00;54.10;;;;;;4993409;28;20022;-70
2021/05/20 06:00:39;;;;;;;5.57;1.30;;;18.20;54.20;;;;;;4992860;28;20044;-72
2021/05/20 06:03:05;;;;;;;6.03;1.40;;;18.50;53.70;;;;;;4993737;28;20030;-73
2021/05/20 06:05:31;;;;;;;7.38;1.50;;;18.40;53.50;;;;;;4993240;28;20050;-70
2021/05/20 06:07:57;;;;;;;3.78;1.13;;;18.50;53.80;;;;;;4985224;28;20459;-70
2021/05/20 06:10:23;;;;;;;2.60;1.10;;;18.50;53.20;;;;;;4982220;28;20367;-72
2021/05/20 06:18:52;;;;;;;2.22;1.10;;;18.60;51.60;;;;;;5245983;23;20477;-72
2021/05/20 06:21:18;;;;;;;7.20;1.20;;;18.70;52.60;;;;;;4953310;28;20051;-71
2021/05/20 06:23:43;;;;;;;6.53;1.15;;;18.70;52.20;;;;;;4953974;29;20103;-69
2021/05/20 06:26:09;;;;;;;8.13;1.63;;;18.80;52.00;;;;;;4954716;29;20070;-69
2021/05/20 06:28:36;;;;;;;5.53;1.23;;;18.90;52.00;;;;;;4954960;29;20024;-69
2021/05/20 06:31:03;;;;;;;4.53;1.10;;;19.00;51.60;;;;;;4928958;28;20031;-69
2021/05/20 06:33:29;;;;;;;6.47;1.20;;;19.00;52.40;;;;;;4932401;29;20040;-68
2021/05/20 06:35:54;;;;;;;4.32;1.48;;;19.00;51.20;;;;;;4935641;29;20078;-70
2021/05/20 06:38:21;;;;;;;3.88;1.50;;;18.90;52.30;;;;;;4935549;29;20091;-70
2021/05/20 06:40:46;;;;;;;5.45;1.52;;;19.10;51.80;;;;;;4923956;29;20564;-70
2021/05/20 06:43:12;;;;;;;3.28;1.50;;;19.20;51.50;;;;;;4917854;29;20036;-69
2021/05/20 06:45:38;;;;;;;3.55;1.63;;;19.30;51.70;;;;;;4931496;29;20071;-74
2021/05/20 06:48:04;;;;;;;6.53;1.45;;;19.60;51.40;;;;;;4917332;29;20110;-72
2021/05/20 06:50:30;;;;;;;5.20;1.20;;;19.60;50.00;;;;;;4927313;29;20392;-72
2021/05/20 06:52:55;;;;;;;5.65;1.40;;;19.50;50.30;;;;;;4933673;29;20028;-73
2021/05/20 06:55:24;;;;;;;6.22;1.52;;;19.60;50.50;;;;;;4933867;29;20047;-78
2021/05/20 07:00:38;;;;;;;4.75;1.27;;;19.90;50.00;;;;;;4932847;29;20035;-78
2021/05/20 07:03:05;;;;;;;7.57;1.83;;;20.10;49.90;;;;;;4940384;29;20453;-75
2021/05/20 07:05:31;;;;;;;3.60;1.42;;;20.00;49.40;;;;;;4929596;29;20080;-78
2021/05/20 07:07:58;;;;;;;5.65;1.60;;;20.10;49.50;;;;;;4940534;29;20112;-75
2021/05/20 07:10:25;;;;;;;5.57;1.30;;;20.30;50.00;;;;;;4938508;29;20094;-77
2021/05/20 07:12:50;;;;;;;3.67;1.20;;;20.20;49.00;;;;;;4934848;29;20042;-78
2021/05/20 07:15:20;;;;;;;2.70;1.30;;;20.20;48.70;;;;;;4940869;29;20497;-71
2021/05/20 07:17:45;;;;;;;11.32;1.63;;;20.10;48.70;;;;;;4940173;29;20464;-77
2021/05/20 07:20:11;;;;;;;6.07;1.50;;;20.10;48.70;;;;;;4959108;28;20411;-70
2021/05/20 07:22:37;;;;;;;3.28;1.20;;;20.00;48.60;;;;;;4970921;28;20042;-73
2021/05/20 07:25:04;;;;;;;5.63;1.50;;;20.10;48.10;;;;;;4955456;28;20113;-66
2021/05/20 07:27:32;;;;;;;7.57;1.55;;;20.20;47.90;;;;;;4971588;28;20109;-72
2021/05/20 07:29:59;;;;;;;5.60;1.30;;;20.20;48.30;;;;;;4971556;28;20054;-70
2021/05/20 07:32:26;;;;;;;2.00;1.10;;;20.20;48.50;;;;;;4975624;28;20034;-71
2021/05/20 07:34:54;;;;;;;3.55;1.42;;;20.30;47.90;;;;;;4975684;28;20026;-67
2021/05/20 07:37:20;;;;;;;6.03;1.30;;;20.30;48.70;;;;;;4958367;28;20395;-72
2021/05/20 07:39:46;;;;;;;7.97;1.60;;;20.50;48.40;;;;;;4975942;28;20218;-72
2021/05/20 07:42:12;;;;;;;3.17;1.35;;;20.60;48.20;;;;;;4974079;28;20050;-69
2021/05/20 07:44:38;;;;;;;5.50;1.20;;;20.50;48.10;;;;;;4975731;28;20046;-71
2021/05/20 07:47:04;;;;;;;7.47;1.20;;;20.50;48.10;;;;;;4958515;28;20110;-73
2021/05/20 07:49:32;;;;;;;4.40;1.27;;;20.50;48.00;;;;;;4982686;28;20110;-73
2021/05/20 07:51:58;;;;;;;6.85;2.17;;;20.40;47.90;;;;;;4984010;28;20364;-70
2021/05/20 07:54:24;;;;;;;6.40;2.10;;;20.30;48.10;;;;;;4980292;28;20109;-70
2021/05/20 07:57:06;;;;;;;12.13;1.80;;;20.40;48.20;;;;;;4975597;28;20023;-74
2021/05/20 07:59:35;;;;;;;5.35;1.23;;;20.50;48.20;;;;;;4965936;28;20086;-81
2021/05/20 08:04:31;;;;;;;3.42;1.17;;;20.60;46.50;;;;;;4976994;28;20098;-84
2021/05/20 08:07:08;;;;;;;10.93;2.00;;;20.60;47.00;;;;;;4959706;28;20077;-81
2021/05/20 08:09:36;;;;;;;6.95;1.35;;;20.60;46.90;;;;;;4981829;28;20053;-77
2021/05/20 08:12:03;;;;;;;5.28;1.45;;;20.60;46.70;;;;;;4970627;28;20026;-74
2021/05/20 08:14:29;;;;;;;8.40;1.80;;;20.70;46.90;;;;;;4974896;28;20023;-81
2021/05/20 08:16:55;;;;;;;6.65;1.20;;;20.80;47.10;;;;;;4976509;28;20145;-76
2021/05/20 08:19:20;;;;;;;6.20;1.58;;;20.70;46.70;;;;;;4975360;28;20023;-76
2021/05/20 08:21:46;;;;;;;9.52;1.58;;;20.70;46.70;;;;;;4974871;28;20042;-78
2021/05/20 08:24:12;;;;;;;1.73;0.90;;;20.70;47.10;;;;;;4975428;28;20125;-76
2021/05/20 08:26:38;;;;;;;6.28;1.00;;;20.60;46.70;;;;;;4975090;28;20034;-78
2021/05/20 08:29:04;;;;;;;2.33;1.10;;;20.50;46.60;;;;;;4964717;28;20038;-76
2021/05/20 08:31:31;;;;;;;8.05;2.28;;;20.40;46.50;;;;;;4961167;28;20099;-83
2021/05/20 08:33:57;;;;;;;10.13;1.60;;;20.40;46.70;;;;;;4977544;28;20502;-76
2021/05/20 08:36:23;;;;;;;5.43;1.38;;;20.30;47.10;;;;;;4976218;28;20026;-80
2021/05/20 08:38:49;;;;;;;6.63;2.17;;;20.30;47.30;;;;;;4975686;28;20115;-83
2021/05/20 08:41:18;;;;;;;5.78;1.42;;;20.40;46.60;;;;;;4974760;28;20041;-77
2021/05/20 08:43:46;;;;;;;6.85;1.52;;;20.40;46.60;;;;;;4974682;28;20031;-79
2021/05/20 08:46:12;;;;;;;3.67;1.20;;;20.60;46.60;;;;;;4968750;28;20058;-77
2021/05/20 08:48:38;;;;;;;6.93;1.38;;;20.60;46.30;;;;;;4970434;28;20066;-78
2021/05/20 08:51:05;;;;;;;4.20;1.20;;;20.60;46.30;;;;;;4959351;28;20416;-78
2021/05/20 08:53:30;;;;;;;2.92;1.02;;;20.60;46.20;;;;;;4975016;28;20168;-78
2021/05/20 08:55:56;;;;;;;3.03;0.90;;;20.60;45.60;;;;;;4976059;28;20213;-74
2021/05/20 08:58:26;;;;;;;4.72;1.20;;;20.60;45.10;;;;;;4979900;28;20045;-78
2021/05/20 09:00:56;;;;;;;6.75;1.10;;;20.60;44.50;;;;;;4977307;28;20039;-81
2021/05/20 09:03:25;;;;;;;5.07;1.02;;;20.60;45.00;;;;;;4980015;28;20109;-77
2021/05/20 09:05:50;;;;;;;4.03;1.13;;;20.50;44.10;;;;;;4975266;28;20062;-76
2021/05/20 09:08:22;;;;;;;5.55;1.10;;;20.60;45.50;;;;;;4974793;28;20038;-81
2021/05/20 09:10:48;;;;;;;6.63;1.60;;;20.70;45.30;;;;;;4942431;28;20414;-76
2021/05/20 09:13:19;;;;;;;4.47;1.52;;;20.80;45.30;;;;;;4974889;28;20038;-74
2021/05/20 09:15:50;;;;;;;6.50;1.88;;;20.90;45.10;;;;;;4973975;28;20027;-74
2021/05/20 09:18:20;;;;;;;5.97;1.40;;;20.90;44.20;;;;;;4974667;28;20035;-81
2021/05/20 09:20:52;;;;;;;10.35;2.75;;;20.90;44.60;;;;;;4973732;28;20627;-79
2021/05/20 09:23:50;;;;;;;8.30;1.75;;;20.90;45.00;;;;;;4956953;28;20490;-80
2021/05/20 09:26:16;;;;;;;6.30;1.52;;;20.90;42.90;;;;;;4976106;28;20049;-77
2021/05/20 09:28:44;;;;;;;4.80;1.40;;;20.90;42.90;;;;;;4974064;28;20106;-77
2021/05/20 09:31:11;;;;;;;3.58;1.00;;;21.00;42.80;;;;;;4974035;28;20022;-72
2021/05/20 09:33:37;;;;;;;3.05;0.82;;;21.00;42.30;;;;;;4956410;28;20038;-76
2021/05/20 09:36:04;;;;;;;4.05;1.40;;;21.00;41.80;;;;;;4956587;28;20077;-70
2021/05/20 09:38:30;;;;;;;2.67;1.10;;;21.00;41.80;;;;;;4975099;28;20015;-79
2021/05/20 09:40:59;;;;;;;5.82;1.50;;;21.00;41.80;;;;;;4958908;28;20035;-76
2021/05/20 09:43:32;;;;;;;4.55;1.20;;;21.20;42.30;;;;;;4952913;28;20027;-74
2021/05/20 09:46:18;;;;;;;1.63;0.77;;;21.20;41.00;;;;;;4956603;28;20121;-77
2021/05/20 09:48:48;;;;;;;2.15;0.70;;;21.30;39.40;;;;;;4969069;28;20567;-76
2021/05/20 09:51:22;;;;;;;1.23;0.60;;;21.40;39.00;;;;;;4976467;28;20022;-78
2021/05/20 09:53:52;;;;;;;14.43;2.38;;;21.50;38.00;;;;;;4972979;28;20110;-77
2021/05/20 09:56:40;;;;;;;1.50;1.00;;;21.50;38.30;;;;;;4974013;28;20395;-78
2021/05/20 09:59:15;;;;;;;1.98;0.82;;;21.60;37.50;;;;;;4973196;28;20031;-77
2021/05/20 10:01:42;;;;;;;8.05;2.17;;;21.60;37.00;;;;;;4955394;28;20054;-80
2021/05/20 10:04:27;;;;;;;3.50;1.35;;;21.70;38.20;;;;;;4974162;28;20350;-86
2021/05/20 10:06:53;;;;;;;4.07;1.15;;;21.80;38.20;;;;;;4974128;28;20030;-79
2021/05/20 10:09:19;;;;;;;1.95;0.75;;;21.80;37.20;;;;;;4975640;28;20493;-83
2021/05/20 10:11:44;;;;;;;5.93;1.67;;;21.90;36.20;;;;;;4957260;28;20077;-80
2021/05/20 10:14:10;;;;;;;2.20;0.90;;;21.90;36.50;;;;;;4956057;28;20023;-80
2021/05/20 10:16:40;;;;;;;2.13;0.93;;;21.90;36.50;;;;;;4962510;28;20055;-80
2021/05/20 10:19:06;;;;;;;1.75;0.80;;;22.00;35.60;;;;;;4973056;28;20023;-78
2021/05/20 10:21:32;;;;;;;4.22;0.80;;;22.10;35.40;;;;;;4973326;28;20039;-78
2021/05/20 10:23:58;;;;;;;3.38;0.90;;;22.10;34.60;;;;;;4972624;28;20049;-76
2021/05/20 10:26:25;;;;;;;3.45;0.80;;;22.10;34.90;;;;;;4976071;28;20026;-79
2021/05/20 10:28:51;;;;;;;3.00;0.60;;;22.20;35.10;;;;;;4973248;28;20534;-77
2021/05/20 10:31:18;;;;;;;1.33;0.70;;;22.20;33.80;;;;;;4976088;28;20038;-78
2021/05/20 10:33:44;;;;;;;3.00;1.00;;;22.30;33.80;;;;;;4976157;28;20041;-79
2021/05/20 10:36:23;;;;;;;0.93;0.40;;;22.30;32.60;;;;;;4976993;28;20022;-76
2021/05/20 10:38:52;;;;;;;2.15;0.57;;;22.30;32.40;;;;;;5480454;22;20153;-77
2021/05/20 10:41:28;;;;;;;2.05;0.50;;;22.30;31.80;;;;;;4973062;28;20392;-77
2021/05/20 10:44:03;;;;;;;3.33;0.73;;;22.40;31.10;;;;;;4959272;28;20026;-85
2021/05/20 10:46:30;;;;;;;1.67;0.75;;;22.50;32.50;;;;;;4974458;28;20038;-79
2021/05/20 10:48:57;;;;;;;2.53;0.60;;;22.50;31.80;;;;;;4972962;28;20075;-81
2021/05/20 10:51:32;;;;;;;1.60;0.60;;;22.60;32.40;;;;;;4977042;28;20034;-84
2021/05/20 10:54:04;;;;;;;1.85;0.55;;;22.70;31.20;;;;;;4978325;28;20022;-84
2021/05/20 10:56:32;;;;;;;2.78;0.70;;;22.80;31.80;;;;;;4985753;28;20023;-84
2021/05/20 10:59:00;;;;;;;1.20;0.50;;;22.80;31.60;;;;;;4994791;28;20133;-84
2021/05/20 11:01:27;;;;;;;5.65;1.45;;;22.80;34.00;;;;;;4979593;28;20031;-78
2021/05/20 11:04:03;;;;;;;1.95;0.70;;;22.90;33.50;;;;;;4969996;28;20039;-80
2021/05/20 11:06:38;;;;;;;5.18;3.08;;;22.90;30.10;;;;;;4977176;28;20050;-84
2021/05/20 11:09:09;;;;;;;3.55;1.92;;;23.00;30.70;;;;;;4980523;28;20035;-77
2021/05/20 11:11:35;;;;;;;3.28;1.95;;;23.00;30.40;;;;;;4980632;28;20033;-76
2021/05/20 11:14:22;;;;;;;6.38;4.15;;;23.00;30.60;;;;;;4971888;28;20034;-78
2021/05/20 11:16:49;;;;;;;4.05;2.25;;;23.00;31.20;;;;;;4962942;28;20043;-75
2021/05/20 11:19:21;;;;;;;3.42;1.00;;;23.10;33.00;;;;;;4960851;28;20019;-77
2021/05/20 11:22:07;;;;;;;8.05;3.38;;;23.20;30.60;;;;;;4975516;28;20051;-78
2021/05/20 11:24:35;;;;;;;6.05;3.58;;;23.30;30.10;;;;;;4984018;28;20578;-81
2021/05/20 11:27:19;;;;;;;4.75;2.75;;;23.30;30.00;;;;;;4995190;28;20036;-75
2021/05/20 11:29:48;;;;;;;3.83;0.93;;;23.30;30.60;;;;;;4994222;28;22085;-75
2021/05/20 11:37:29;;;;;;;6.68;1.95;;;23.50;31.80;;;;;;4972038;28;20045;-78
2021/05/20 11:39:54;;;;;;;;;;;23.60;31.40;;;;;;4980944;28;20070;-77
2021/05/20 11:42:28;;;;;;;3.90;0.90;;;23.70;30.00;;;;;;4995276;28;20452;-76
2021/05/20 11:44:57;;;;;;;1.80;0.70;;;23.70;29.90;;;;;;4983375;28;20035;-78
2021/05/20 11:47:23;;;;;;;5.53;0.93;;;23.80;31.10;;;;;;4975043;28;20066;-76
2021/05/20 11:49:50;;;;;;;3.13;1.08;;;23.80;31.10;;;;;;4975089;28;20101;-76
2021/05/20 11:52:17;;;;;;;1.85;0.80;;;23.90;31.00;;;;;;4975351;28;20183;-74
2021/05/20 11:54:49;;;;;;;2.72;0.80;;;23.80;30.80;;;;;;4983196;28;20383;-73
2021/05/20 11:57:17;;;;;;;1.80;0.70;;;23.80;30.50;;;;;;4973757;28;20030;-74
2021/05/20 11:59:46;;;;;;;1.80;0.90;;;23.90;30.50;;;;;;4974988;28;20027;-73
2021/05/20 12:02:21;;;;;;;1.77;0.85;;;24.00;31.20;;;;;;4965116;28;20483;-75
2021/05/20 12:04:48;;;;;;;2.45;1.10;;;24.00;30.30;;;;;;4994556;28;20064;-76
2021/05/20 12:07:19;;;;;;;1.90;0.50;;;24.00;30.70;;;;;;4981629;28;20035;-75
2021/05/20 12:09:44;;;;;;;1.80;0.73;;;24.10;30.70;;;;;;4956665;28;20031;-75
2021/05/20 12:12:12;;;;;;;1.85;0.73;;;24.10;30.90;;;;;;4975349;28;20023;-77
2021/05/20 12:14:39;;;;;;;2.20;0.77;;;24.20;30.60;;;;;;4984910;28;20112;-78
2021/05/20 12:17:07;;;;;;;1.80;0.70;;;24.30;30.80;;;;;;4994708;28;20054;-77
2021/05/20 12:19:36;;;;;;;0.82;0.50;;;24.30;29.50;;;;;;4992961;28;20407;-75
2021/05/20 12:22:07;;;;;;;3.90;0.70;;;24.30;30.10;;;;;;4975157;28;20039;-75
2021/05/20 12:24:38;;;;;;;1.88;0.63;;;24.30;31.50;;;;;;4974309;28;20030;-77
2021/05/20 12:27:16;;;;;;;2.55;0.90;;;24.30;30.50;;;;;;4988328;28;20031;-74
2021/05/20 12:29:44;;;;;;;3.03;0.68;;;24.40;29.80;;;;;;4993651;28;20033;-73
2021/05/20 12:32:48;;;;;;;2.78;0.70;;;24.40;30.10;;;;;;4974702;28;20502;-73
2021/05/20 12:35:22;;;;;;;2.20;0.82;;;24.40;28.70;;;;;;4929764;28;20480;-75
2021/05/20 12:38:06;;;;;;;2.38;0.80;;;24.40;30.00;;;;;;4956665;28;20122;-74
2021/05/20 12:40:49;;;;;;;1.58;0.82;;;24.40;29.10;;;;;;4973644;28;20038;-74
2021/05/20 12:43:35;;;;;;;3.83;0.55;;;24.50;28.70;;;;;;4957497;28;20039;-73
2021/05/20 12:46:12;;;;;;;1.05;0.50;;;24.50;28.50;;;;;;4968524;28;20125;-74
2021/05/20 12:48:46;;;;;;;0.43;0.40;;;24.60;29.00;;;;;;4973522;28;20317;-77
2021/05/20 12:51:15;;;;;;;1.42;0.77;;;24.70;28.80;;;;;;4973721;28;20376;-74
2021/05/20 12:53:43;;;;;;;2.20;0.65;;;24.80;28.70;;;;;;4974426;28;20097;-74
2021/05/20 12:56:33;;;;;;;1.27;0.57;;;24.80;28.50;;;;;;4958815;28;20030;-74
2021/05/20 12:59:03;;;;;;;1.45;0.50;;;24.90;27.80;;;;;;4993539;28;20026;-74
2021/05/20 13:01:47;;;;;;;4.80;0.80;;;24.80;27.70;;;;;;4970458;28;20468;-76
2021/05/20 13:04:18;;;;;;;0.82;0.57;;;24.80;28.10;;;;;;4991391;28;20031;-74
2021/05/20 13:06:45;;;;;;;1.23;0.75;;;24.80;27.80;;;;;;4993495;28;20534;-77
2021/05/20 13:09:13;;;;;;;1.65;0.68;;;24.80;28.10;;;;;;4975543;28;20390;-76